createdAt,value
2019-05-05T00:01:34.435Z,77.90
2019-05-05T00:04:21.452Z,77.90
2019-05-05T00:06:50.757Z,77.90
2019-05-05T00:09:20.001Z,77.90
2019-05-05T00:11:57.455Z,77.90
2019-05-05T00:14:44.449Z,78.00
2019-05-05T00:17:19.488Z,78.20
2019-05-05T00:19:48.771Z,78.20
2019-05-05T00:22:18.054Z,78.20
2019-05-05T00:24:47.303Z,78.00
2019-05-05T00:27:16.661Z,77.90
2019-05-05T00:29:45.962Z,77.80
2019-05-05T00:32:15.513Z,77.80
2019-05-05T00:34:44.890Z,77.90
2019-05-05T00:37:15.153Z,78.00
2019-05-05T00:39:45.327Z,78.00
2019-05-05T00:42:15.543Z,77.80
2019-05-05T00:44:45.040Z,77.70
2019-05-05T00:47:34.344Z,77.70
2019-05-05T00:50:05.175Z,77.70
2019-05-05T00:52:35.194Z,77.60
2019-05-05T00:55:24.425Z,77.70
2019-05-05T00:57:54.776Z,77.60
2019-05-05T01:00:48.240Z,77.60
2019-05-05T01:03:19.576Z,77.50
2019-05-05T01:05:57.300Z,78.30
2019-05-05T01:08:28.424Z,77.40
2019-05-05T01:10:58.236Z,77.30
2019-05-05T01:13:27.533Z,77.30
2019-05-05T01:15:56.937Z,77.20
2019-05-05T01:18:26.284Z,77.20
2019-05-05T01:20:55.612Z,77.20
2019-05-05T01:23:24.933Z,77.20
2019-05-05T01:25:54.475Z,77.30
2019-05-05T01:28:24.914Z,77.40
2019-05-05T01:30:57.656Z,77.50
2019-05-05T01:33:34.372Z,77.30
2019-05-05T01:36:04.660Z,77.40
2019-05-05T01:38:44.645Z,77.30
2019-05-05T01:41:34.801Z,77.20
2019-05-05T01:44:05.587Z,77.20
2019-05-05T01:46:35.448Z,77.30
2019-05-05T01:49:05.495Z,77.20
2019-05-05T01:51:35.401Z,77.30
2019-05-05T01:54:05.394Z,77.20
2019-05-05T01:56:35.736Z,77.10
2019-05-05T01:59:05.324Z,77.00
2019-05-05T02:01:35.220Z,76.90
2019-05-05T02:04:05.488Z,76.80
2019-05-05T02:06:35.224Z,77.30
2019-05-05T02:09:05.718Z,76.50
2019-05-05T02:11:35.352Z,76.40
2019-05-05T02:14:05.213Z,76.20
2019-05-05T02:16:34.808Z,76.10
2019-05-05T02:19:05.097Z,76.10
2019-05-05T02:21:35.267Z,76.20
2019-05-05T02:24:05.425Z,76.10
2019-05-05T02:26:35.198Z,76.50
2019-05-05T02:29:14.224Z,75.60
2019-05-05T02:32:01.274Z,75.50
2019-05-05T02:34:35.881Z,75.40
2019-05-05T02:37:05.424Z,75.40
2019-05-05T02:39:38.118Z,75.50
2019-05-05T02:42:06.169Z,75.60
2019-05-05T02:44:37.020Z,75.60
2019-05-05T02:47:31.003Z,75.50
2019-05-05T02:50:05.226Z,75.40
2019-05-05T02:52:35.875Z,75.30
2019-05-05T02:55:05.695Z,75.40
2019-05-05T02:57:35.751Z,75.30
2019-05-05T03:00:28.210Z,76.10
2019-05-05T03:02:58.861Z,75.20
2019-05-05T03:05:28.606Z,75.00
2019-05-05T03:07:58.875Z,75.10
2019-05-05T03:10:30.135Z,75.10
2019-05-05T03:13:01.347Z,75.20
2019-05-05T03:16:05.063Z,75.40
2019-05-05T03:18:34.534Z,76.30
2019-05-05T03:21:07.184Z,75.50
2019-05-05T03:23:34.979Z,75.40
2019-05-05T03:26:04.499Z,75.50
2019-05-05T03:28:43.948Z,75.50
2019-05-05T03:31:16.028Z,76.50
2019-05-05T03:33:46.060Z,75.80
2019-05-05T03:36:15.622Z,75.80
2019-05-05T03:38:45.993Z,75.80
2019-05-05T03:41:24.874Z,75.60
2019-05-05T03:44:19.478Z,75.50
2019-05-05T03:46:49.217Z,75.40
2019-05-05T03:49:19.301Z,75.30
2019-05-05T03:51:48.658Z,76.10
2019-05-05T03:54:18.439Z,75.20
2019-05-05T03:56:49.569Z,75.20
2019-05-05T03:59:19.313Z,75.40
2019-05-05T04:01:54.676Z,75.30
2019-05-05T04:04:37.178Z,75.40
2019-05-05T04:07:06.922Z,75.40
2019-05-05T04:09:36.261Z,75.50
2019-05-05T04:12:05.646Z,75.60
2019-05-05T04:14:35.018Z,75.70
2019-05-05T04:17:35.925Z,75.90
2019-05-05T04:20:24.465Z,75.80
2019-05-05T04:22:54.600Z,76.00
2019-05-05T04:25:24.729Z,76.30
2019-05-05T04:27:54.085Z,76.40
2019-05-05T04:30:23.766Z,76.40
2019-05-05T04:32:54.589Z,76.60
2019-05-05T04:35:24.610Z,76.80
2019-05-05T04:37:54.411Z,77.10
2019-05-05T04:40:24.166Z,77.20
2019-05-05T04:42:54.685Z,77.30
2019-05-05T04:45:24.319Z,77.50
2019-05-05T04:47:57.922Z,77.70
2019-05-05T04:50:55.497Z,77.70
2019-05-05T04:53:36.349Z,77.90
2019-05-05T04:56:05.641Z,77.80
2019-05-05T04:58:35.016Z,78.00
2019-05-05T05:01:04.731Z,78.10
2019-05-05T05:03:43.856Z,78.30
2019-05-05T05:06:19.090Z,78.60
2019-05-05T05:08:48.375Z,78.80
2019-05-05T05:11:17.660Z,78.90
2019-05-05T05:13:46.944Z,79.10
2019-05-05T05:16:16.291Z,79.20
2019-05-05T05:18:45.536Z,79.30
2019-05-05T05:21:14.908Z,79.30
2019-05-05T05:23:44.551Z,79.40
2019-05-05T05:26:14.051Z,79.80
2019-05-05T05:28:44.803Z,80.10
2019-05-05T05:31:14.276Z,80.10
2019-05-05T05:33:43.761Z,80.20
2019-05-05T05:36:14.435Z,80.30
2019-05-05T05:38:45.497Z,80.30
2019-05-05T05:41:16.815Z,80.60
2019-05-05T05:43:56.164Z,80.60
2019-05-05T05:46:54.590Z,80.70
2019-05-05T05:49:37.112Z,80.60
2019-05-05T05:52:16.289Z,80.50
2019-05-05T05:54:37.323Z,80.70
2019-05-05T05:57:06.626Z,80.90
2019-05-05T05:59:35.980Z,81.00
2019-05-05T06:02:12.237Z,80.80
2019-05-05T06:04:36.227Z,81.00
2019-05-05T06:07:05.489Z,81.10
2019-05-05T06:09:34.776Z,81.00
2019-05-05T06:12:04.112Z,80.60
2019-05-05T06:14:34.155Z,80.30
2019-05-05T06:17:04.232Z,80.00
2019-05-05T06:19:33.929Z,79.80
2019-05-05T06:22:03.611Z,79.70
2019-05-05T06:24:34.590Z,79.30
2019-05-05T06:27:04.067Z,78.90
2019-05-05T06:29:34.481Z,78.70
2019-05-05T06:32:04.140Z,78.40
2019-05-05T06:34:33.864Z,77.80
2019-05-05T06:37:04.203Z,77.20
2019-05-05T06:39:33.784Z,77.10
2019-05-05T06:42:27.887Z,76.90
2019-05-05T06:45:05.122Z,76.50
2019-05-05T06:47:38.602Z,76.30
2019-05-05T06:50:08.108Z,76.20
2019-05-05T06:52:44.248Z,76.00
2019-05-05T06:55:08.536Z,74.80
2019-05-05T06:57:38.011Z,75.50
2019-05-05T07:00:07.582Z,75.20
2019-05-05T07:02:36.903Z,75.20
2019-05-05T07:05:06.259Z,75.20
2019-05-05T07:07:35.550Z,74.90
2019-05-05T07:10:05.139Z,74.60
2019-05-05T07:12:34.802Z,74.50
2019-05-05T07:15:04.604Z,74.20
2019-05-05T07:17:33.995Z,74.30
2019-05-05T07:20:04.374Z,74.00
2019-05-05T07:22:34.664Z,74.60
2019-05-05T07:25:04.791Z,73.40
2019-05-05T07:27:34.230Z,73.30
2019-05-05T07:30:04.766Z,73.20
2019-05-05T07:32:34.191Z,72.90
2019-05-05T07:35:18.382Z,72.90
2019-05-05T07:37:47.659Z,72.90
2019-05-05T07:40:16.914Z,72.90
2019-05-05T07:42:46.202Z,72.40
2019-05-05T07:45:22.411Z,72.20
2019-05-05T07:47:47.554Z,71.90
2019-05-05T07:50:28.568Z,71.60
2019-05-05T07:52:48.130Z,71.40
2019-05-05T07:55:17.418Z,70.80
2019-05-05T07:57:46.727Z,70.50
2019-05-05T08:00:16.098Z,70.40
2019-05-05T08:02:45.408Z,70.20
2019-05-05T08:05:14.802Z,69.90
2019-05-05T08:07:44.644Z,70.00
2019-05-05T08:10:14.172Z,70.00
2019-05-05T08:12:43.752Z,69.80
2019-05-05T08:15:14.847Z,69.90
2019-05-05T08:17:57.021Z,69.70
2019-05-05T08:20:33.885Z,69.60
2019-05-05T08:23:04.280Z,69.50
2019-05-05T08:25:58.817Z,69.30
2019-05-05T08:29:05.510Z,69.40
2019-05-05T08:31:53.677Z,69.20
2019-05-05T08:34:24.450Z,69.00
2019-05-05T08:36:53.937Z,68.80
2019-05-05T08:39:24.510Z,68.50
2019-05-05T08:41:53.970Z,67.80
2019-05-05T08:44:23.709Z,67.60
2019-05-05T08:46:53.778Z,67.30
2019-05-05T08:49:24.416Z,67.20
2019-05-05T08:51:54.726Z,67.20
2019-05-05T08:54:24.215Z,66.50
2019-05-05T08:56:54.923Z,65.20
2019-05-05T08:59:24.541Z,64.10
2019-05-05T09:01:54.242Z,63.50
2019-05-05T09:04:24.701Z,63.10
2019-05-05T09:06:54.385Z,63.00
2019-05-05T09:09:24.232Z,62.40
2019-05-05T09:11:54.190Z,61.90
2019-05-05T09:14:24.049Z,61.20
2019-05-05T09:16:53.841Z,61.30
2019-05-05T09:19:23.996Z,60.50
2019-05-05T09:21:54.124Z,58.80
2019-05-05T09:24:45.629Z,57.70
2019-05-05T09:27:34.017Z,57.50
2019-05-05T09:30:04.109Z,57.80
2019-05-05T09:32:34.396Z,57.60
2019-05-05T09:35:04.787Z,56.80
2019-05-05T09:37:34.228Z,56.80
2019-05-05T09:40:04.522Z,56.10
2019-05-05T09:42:34.260Z,55.30
2019-05-05T09:45:04.798Z,55.10
2019-05-05T09:47:34.468Z,54.10
2019-05-05T09:50:03.965Z,52.40
2019-05-05T09:52:33.839Z,52.00
2019-05-05T09:55:04.027Z,52.20
2019-05-05T09:57:34.428Z,52.30
2019-05-05T10:00:10.649Z,52.00
2019-05-05T10:02:40.011Z,51.60
2019-05-05T10:05:09.855Z,50.80
2019-05-05T10:07:39.095Z,50.60
2019-05-05T10:10:09.180Z,50.70
2019-05-05T10:12:38.439Z,50.70
2019-05-05T10:15:08.027Z,50.50
2019-05-05T10:17:37.291Z,50.40
2019-05-05T10:20:06.633Z,50.10
2019-05-05T10:22:35.999Z,50.00
2019-05-05T10:25:23.897Z,50.20
2019-05-05T10:27:54.017Z,49.90
2019-05-05T10:30:23.922Z,49.60
2019-05-05T10:32:54.539Z,49.90
2019-05-05T10:35:24.183Z,50.30
2019-05-05T10:37:54.489Z,50.20
2019-05-05T10:40:27.810Z,50.40
2019-05-05T10:42:57.192Z,50.00
2019-05-05T10:45:26.839Z,49.60
2019-05-05T10:47:56.136Z,49.20
2019-05-05T10:50:25.424Z,49.00
2019-05-05T10:52:54.907Z,48.40
2019-05-05T10:55:24.202Z,47.90
2019-05-05T10:57:54.462Z,47.90
2019-05-05T11:00:44.562Z,48.10
2019-05-05T11:03:15.100Z,48.00
2019-05-05T11:05:45.202Z,47.60
2019-05-05T11:08:14.922Z,47.40
2019-05-05T11:10:45.036Z,47.10
2019-05-05T11:13:14.574Z,47.20
2019-05-05T11:15:44.528Z,46.40
2019-05-05T11:18:14.961Z,45.80
2019-05-05T11:20:44.934Z,45.30
2019-05-05T11:23:15.119Z,45.30
2019-05-05T11:25:44.711Z,45.20
2019-05-05T11:28:14.006Z,45.10
2019-05-05T11:30:44.485Z,44.20
2019-05-05T11:33:24.194Z,43.70
2019-05-05T11:36:06.990Z,43.20
2019-05-05T11:38:36.378Z,41.80
2019-05-05T11:41:05.689Z,41.20
2019-05-05T11:43:35.059Z,41.20
2019-05-05T11:46:04.330Z,40.80
2019-05-05T11:48:34.455Z,39.80
2019-05-05T11:51:04.480Z,39.10
2019-05-05T11:53:34.175Z,38.60
2019-05-05T11:56:04.233Z,38.80
2019-05-05T11:58:34.053Z,39.20
2019-05-05T12:01:03.831Z,40.00
2019-05-05T12:03:34.039Z,40.40
2019-05-05T12:06:04.024Z,39.60
2019-05-05T12:08:34.509Z,38.30
2019-05-05T12:11:05.809Z,37.30
2019-05-05T12:13:35.065Z,36.70
2019-05-05T12:16:09.193Z,36.80
2019-05-05T12:18:38.693Z,37.20
2019-05-05T12:21:08.085Z,37.60
2019-05-05T12:23:37.388Z,38.00
2019-05-05T12:26:31.545Z,38.10
2019-05-05T12:29:29.637Z,38.20
2019-05-05T12:31:59.029Z,38.60
2019-05-05T12:34:28.393Z,39.30
2019-05-05T12:36:57.767Z,39.80
2019-05-05T12:39:27.155Z,39.90
2019-05-05T12:41:56.407Z,39.90
2019-05-05T12:44:30.754Z,39.80
2019-05-05T12:47:11.127Z,39.80
2019-05-05T12:49:40.467Z,39.80
2019-05-05T12:52:09.803Z,39.80
2019-05-05T12:54:39.132Z,38.90
2019-05-05T12:57:08.500Z,37.30
2019-05-05T12:59:37.790Z,35.50
2019-05-05T13:02:07.756Z,34.60
2019-05-05T13:04:37.101Z,34.90
2019-05-05T13:07:08.264Z,35.00
2019-05-05T13:09:37.360Z,34.90
2019-05-05T13:12:06.723Z,35.20
2019-05-05T13:14:36.015Z,35.00
2019-05-05T13:17:05.331Z,34.30
2019-05-05T13:19:40.879Z,33.60
2019-05-05T13:22:41.211Z,32.90
2019-05-05T13:25:26.810Z,32.30
2019-05-05T13:27:57.415Z,31.50
2019-05-05T13:30:26.951Z,30.60
2019-05-05T13:32:56.242Z,29.80
2019-05-05T13:35:25.531Z,29.50
2019-05-05T13:37:55.027Z,29.60
2019-05-05T13:40:24.414Z,29.50
2019-05-05T13:42:54.673Z,28.80
2019-05-05T13:45:43.580Z,28.40
2019-05-05T13:48:14.079Z,27.80
2019-05-05T13:50:48.640Z,27.60
2019-05-05T13:53:17.922Z,27.60
2019-05-05T13:55:47.170Z,27.20
2019-05-05T13:58:16.556Z,26.60
2019-05-05T14:00:45.911Z,26.20
2019-05-05T14:03:15.158Z,26.60
2019-05-05T14:05:44.486Z,27.10
2019-05-05T14:08:14.678Z,27.60
2019-05-05T14:10:44.146Z,27.70
2019-05-05T14:13:15.237Z,27.20
2019-05-05T14:15:44.671Z,26.50
2019-05-05T14:18:14.364Z,26.40
2019-05-05T14:20:43.758Z,26.40
2019-05-05T14:23:14.794Z,26.70
2019-05-05T14:25:44.094Z,27.40
2019-05-05T14:28:14.131Z,28.10
2019-05-05T14:30:54.177Z,28.80
2019-05-05T14:33:26.550Z,29.50
2019-05-05T14:36:14.894Z,30.00
2019-05-05T14:38:49.491Z,31.20
2019-05-05T14:41:18.342Z,31.00
2019-05-05T14:43:47.609Z,31.30
2019-05-05T14:46:16.965Z,31.20
2019-05-05T14:48:46.273Z,31.00
2019-05-05T14:51:15.675Z,30.90
2019-05-05T14:53:45.033Z,30.90
2019-05-05T14:56:14.329Z,30.70
2019-05-05T14:58:43.879Z,30.80
2019-05-05T15:01:14.391Z,31.20
2019-05-05T15:03:44.502Z,31.80
2019-05-05T15:06:23.923Z,32.00
2019-05-05T15:09:13.911Z,32.20
2019-05-05T15:11:54.701Z,32.10
2019-05-05T15:14:24.461Z,32.20
2019-05-05T15:16:54.307Z,32.30
2019-05-05T15:19:23.959Z,32.40
2019-05-05T15:21:53.681Z,32.10
2019-05-05T15:24:24.499Z,31.50
2019-05-05T15:26:54.983Z,31.10
2019-05-05T15:29:25.154Z,30.10
2019-05-05T15:31:54.848Z,29.70
2019-05-05T15:34:24.208Z,29.10
2019-05-05T15:36:54.684Z,28.70
2019-05-05T15:39:24.634Z,28.80
2019-05-05T15:41:54.338Z,29.10
2019-05-05T15:44:24.167Z,29.20
2019-05-05T15:46:57.273Z,29.20
2019-05-05T15:49:24.618Z,29.30
2019-05-05T15:51:54.102Z,29.40
2019-05-05T15:54:23.720Z,29.10
2019-05-05T15:57:04.857Z,29.00
2019-05-05T15:59:24.090Z,28.80
2019-05-05T16:01:54.916Z,28.50
2019-05-05T16:04:24.508Z,28.10
2019-05-05T16:06:54.198Z,27.80
2019-05-05T16:09:23.669Z,27.50
2019-05-05T16:11:54.569Z,27.60
2019-05-05T16:14:24.585Z,27.40
2019-05-05T16:17:16.004Z,27.40
2019-05-05T16:19:57.296Z,27.50
2019-05-05T16:22:39.204Z,27.90
2019-05-05T16:25:14.051Z,28.50
2019-05-05T16:27:44.688Z,28.90
2019-05-05T16:30:15.309Z,29.30
2019-05-05T16:32:44.592Z,29.60
2019-05-05T16:35:14.588Z,30.00
2019-05-05T16:37:44.187Z,29.90
2019-05-05T16:40:14.442Z,30.00
2019-05-05T16:42:43.912Z,30.30
2019-05-05T16:45:16.416Z,30.60
2019-05-05T16:47:46.035Z,30.80
2019-05-05T16:50:16.376Z,31.40
2019-05-05T16:52:54.635Z,30.80
2019-05-05T16:55:53.846Z,30.40
2019-05-05T16:58:24.044Z,30.00
2019-05-05T17:00:54.392Z,29.90
2019-05-05T17:03:24.029Z,29.60
2019-05-05T17:05:54.623Z,29.70
2019-05-05T17:08:24.743Z,29.90
2019-05-05T17:10:54.115Z,30.00
2019-05-05T17:13:41.247Z,30.00
2019-05-05T17:16:35.011Z,30.10
2019-05-05T17:19:16.654Z,30.10
2019-05-05T17:22:04.038Z,30.10
2019-05-05T17:24:34.479Z,30.20
2019-05-05T17:27:03.951Z,30.40
2019-05-05T17:29:34.501Z,30.20
2019-05-05T17:32:03.922Z,30.00
2019-05-05T17:34:34.069Z,30.00
2019-05-05T17:37:04.295Z,30.10
2019-05-05T17:39:36.618Z,30.40
2019-05-05T17:42:30.936Z,30.60
2019-05-05T17:45:16.547Z,30.80
2019-05-05T17:47:50.595Z,31.00
2019-05-05T17:50:38.930Z,31.30
2019-05-05T17:53:39.078Z,31.60
2019-05-05T17:56:10.262Z,32.00
2019-05-05T17:58:39.642Z,32.40
2019-05-05T18:01:09.010Z,32.90
2019-05-05T18:03:38.302Z,33.20
2019-05-05T18:06:23.660Z,33.40
2019-05-05T18:09:13.978Z,33.60
2019-05-05T18:12:20.252Z,33.90
2019-05-05T18:14:50.006Z,34.10
2019-05-05T18:17:19.352Z,34.50
2019-05-05T18:19:48.624Z,35.00
2019-05-05T18:22:17.966Z,35.90
2019-05-05T18:24:47.281Z,36.80
2019-05-05T18:27:16.650Z,37.60
2019-05-05T18:29:46.022Z,38.20
2019-05-05T18:32:15.406Z,39.30
2019-05-05T18:34:44.658Z,39.80
2019-05-05T18:37:14.523Z,39.90
2019-05-05T18:39:44.052Z,40.10
2019-05-05T18:42:20.000Z,41.00
2019-05-05T18:44:53.918Z,41.80
2019-05-05T18:47:25.190Z,42.20
2019-05-05T18:49:54.123Z,42.30
2019-05-05T18:52:24.580Z,42.70
2019-05-05T18:54:54.566Z,43.30
2019-05-05T18:57:24.658Z,44.00
2019-05-05T18:59:54.424Z,44.50
2019-05-05T19:02:48.734Z,45.20
2019-05-05T19:05:45.941Z,45.80
2019-05-05T19:08:24.550Z,46.20
2019-05-05T19:10:54.259Z,46.50
2019-05-05T19:13:24.484Z,47.00
2019-05-05T19:15:53.975Z,47.40
2019-05-05T19:18:24.541Z,47.80
2019-05-05T19:21:16.046Z,48.20
2019-05-05T19:23:45.445Z,48.60
2019-05-05T19:26:14.721Z,49.00
2019-05-05T19:28:49.739Z,49.40
2019-05-05T19:31:14.989Z,49.70
2019-05-05T19:33:44.636Z,50.10
2019-05-05T19:36:14.301Z,50.50
2019-05-05T19:38:44.162Z,51.00
2019-05-05T19:41:14.417Z,51.50
2019-05-05T19:43:54.679Z,51.90
2019-05-05T19:46:29.064Z,52.20
2019-05-05T19:49:16.196Z,52.20
2019-05-05T19:51:45.847Z,51.90
2019-05-05T19:54:15.180Z,51.30
2019-05-05T19:56:44.829Z,50.90
2019-05-05T19:59:14.390Z,50.70
2019-05-05T20:01:45.024Z,50.70
2019-05-05T20:04:14.808Z,50.60
2019-05-05T20:06:44.411Z,50.80
2019-05-05T20:09:14.348Z,51.20
2019-05-05T20:11:44.083Z,51.30
2019-05-05T20:14:15.092Z,51.50
2019-05-05T20:17:04.291Z,51.80
2019-05-05T20:19:44.099Z,52.00
2019-05-05T20:22:14.635Z,52.00
2019-05-05T20:24:44.500Z,52.10
2019-05-05T20:27:14.176Z,52.20
2019-05-05T20:29:43.744Z,52.40
2019-05-05T20:32:13.913Z,52.70
2019-05-05T20:35:17.660Z,52.80
2019-05-05T20:37:50.745Z,53.00
2019-05-05T20:40:24.338Z,53.00
2019-05-05T20:42:54.255Z,53.20
2019-05-05T20:45:26.438Z,53.30
2019-05-05T20:47:55.695Z,53.40
2019-05-05T20:50:24.996Z,53.60
2019-05-05T20:52:54.315Z,54.00
2019-05-05T20:55:25.768Z,54.20
2019-05-05T20:57:54.825Z,54.20
2019-05-05T21:00:24.148Z,54.40
2019-05-05T21:02:53.895Z,54.50
2019-05-05T21:05:24.214Z,54.60
2019-05-05T21:07:53.568Z,54.70
2019-05-05T21:10:24.126Z,54.90
2019-05-05T21:12:54.366Z,54.90
2019-05-05T21:15:24.711Z,54.90
2019-05-05T21:17:54.334Z,55.00
2019-05-05T21:20:24.181Z,55.00
2019-05-05T21:23:14.364Z,55.00
2019-05-05T21:25:47.139Z,55.10
2019-05-05T21:28:16.487Z,55.30
2019-05-05T21:30:45.871Z,55.30
2019-05-05T21:33:15.130Z,55.30
2019-05-05T21:35:44.408Z,55.20
2019-05-05T21:38:14.225Z,55.20
2019-05-05T21:40:44.082Z,55.10
2019-05-05T21:43:15.378Z,55.00
2019-05-05T21:45:44.572Z,55.00
2019-05-05T21:48:14.026Z,54.90
2019-05-05T21:50:48.782Z,54.90
2019-05-05T21:53:30.938Z,55.00
2019-05-05T21:56:18.139Z,55.20
2019-05-05T21:58:47.544Z,55.30
2019-05-05T22:01:18.742Z,55.30
2019-05-05T22:03:48.154Z,55.40
2019-05-05T22:06:17.443Z,55.60
2019-05-05T22:08:46.718Z,55.80
2019-05-05T22:11:16.026Z,56.00
2019-05-05T22:13:45.399Z,56.00
2019-05-05T22:16:14.742Z,56.00
2019-05-05T22:18:44.687Z,55.90
2019-05-05T22:21:21.235Z,56.10
2019-05-05T22:24:08.336Z,56.40
2019-05-05T22:26:37.702Z,56.60
2019-05-05T22:29:07.098Z,56.80
2019-05-05T22:31:36.463Z,56.80
2019-05-05T22:34:05.814Z,56.80
2019-05-05T22:36:35.146Z,56.90
2019-05-05T22:39:05.450Z,57.00
2019-05-05T22:41:34.794Z,57.00
2019-05-05T22:44:04.525Z,57.10
2019-05-05T22:46:34.741Z,57.40
2019-05-05T22:49:04.349Z,57.70
2019-05-05T22:51:33.870Z,58.00
2019-05-05T22:54:03.925Z,58.20
2019-05-05T22:56:33.724Z,58.40
2019-05-05T22:59:04.297Z,58.60
2019-05-05T23:01:33.833Z,58.70
2019-05-05T23:04:14.502Z,58.80
2019-05-05T23:06:44.445Z,59.00
2019-05-05T23:09:14.765Z,59.00
2019-05-05T23:11:44.151Z,59.20
2019-05-05T23:14:28.603Z,59.20
2019-05-05T23:17:07.117Z,59.40
2019-05-05T23:20:13.455Z,59.50
2019-05-05T23:22:51.037Z,59.60
2019-05-05T23:25:28.393Z,59.40
2019-05-05T23:27:57.670Z,59.30
2019-05-05T23:30:38.715Z,59.20
2019-05-05T23:32:57.930Z,59.10
2019-05-05T23:35:27.169Z,59.00
2019-05-05T23:37:56.544Z,59.00
2019-05-05T23:40:26.955Z,58.80
2019-05-05T23:42:56.201Z,58.90
2019-05-05T23:45:25.488Z,58.80
2019-05-05T23:47:54.909Z,58.80
2019-05-05T23:50:24.271Z,58.80
2019-05-05T23:52:54.598Z,58.80
2019-05-05T23:55:24.296Z,58.80
2019-05-05T23:57:54.621Z,58.90
